createdAt,value
2023-06-28T00:02:04.894Z,21.68
2023-06-28T00:04:32.674Z,21.65
2023-06-28T00:07:00.308Z,21.66
2023-06-28T00:09:28.692Z,21.61
2023-06-28T00:11:56.396Z,21.59
2023-06-28T00:14:23.830Z,21.57
2023-06-28T00:16:51.974Z,21.49
2023-06-28T00:19:28.009Z,21.54
2023-06-28T00:21:56.824Z,21.45
2023-06-28T00:24:24.562Z,21.44
2023-06-28T00:26:52.036Z,21.41
2023-06-28T00:29:19.838Z,21.35
2023-06-28T00:31:47.611Z,21.36
2023-06-28T00:34:15.180Z,21.35
2023-06-28T00:36:42.668Z,21.33
2023-06-28T00:39:10.455Z,21.32
2023-06-28T00:41:38.003Z,21.32
2023-06-28T00:44:07.178Z,21.24
2023-06-28T00:46:38.031Z,21.26
2023-06-28T00:49:06.463Z,21.22
2023-06-28T00:51:33.950Z,21.22
2023-06-28T00:54:01.719Z,21.21
2023-06-28T00:56:29.237Z,21.23
2023-06-28T00:58:56.778Z,21.21
2023-06-28T01:01:25.065Z,21.20
2023-06-28T01:03:54.642Z,21.18
2023-06-28T01:06:22.500Z,21.10
2023-06-28T01:08:51.064Z,21.16
2023-06-28T01:11:19.963Z,21.14
2023-06-28T01:13:47.510Z,21.13
2023-06-28T01:16:15.268Z,21.08
2023-06-28T01:18:42.833Z,21.04
2023-06-28T01:21:12.085Z,21.03
2023-06-28T01:23:39.889Z,21.06
2023-06-28T01:26:09.036Z,21.02
2023-06-28T01:28:37.358Z,21.01
2023-06-28T01:31:06.173Z,20.91
2023-06-28T01:33:34.531Z,21.00
2023-06-28T01:36:02.111Z,21.00
2023-06-28T01:38:29.937Z,20.98
2023-06-28T01:40:58.355Z,20.89
2023-06-28T01:43:26.101Z,20.85
2023-06-28T01:45:55.661Z,20.87
2023-06-28T01:48:23.170Z,20.84
2023-06-28T01:50:50.634Z,20.83
2023-06-28T01:53:18.883Z,20.80
2023-06-28T01:55:46.346Z,20.80
2023-06-28T01:58:14.280Z,20.79
2023-06-28T02:00:42.176Z,20.82
2023-06-28T02:03:10.261Z,20.74
2023-06-28T02:05:37.846Z,20.78
2023-06-28T02:08:06.112Z,20.79
2023-06-28T02:10:34.766Z,20.84
2023-06-28T02:13:02.215Z,20.85
2023-06-28T02:15:30.577Z,20.72
2023-06-28T02:17:59.597Z,20.79
2023-06-28T02:20:27.247Z,20.71
2023-06-28T02:22:54.985Z,20.77
2023-06-28T02:25:22.544Z,20.76
2023-06-28T02:27:49.979Z,20.67
2023-06-28T02:30:17.759Z,20.72
2023-06-28T02:32:45.348Z,20.67
2023-06-28T02:35:13.573Z,20.67
2023-06-28T02:37:41.896Z,20.70
2023-06-28T02:40:11.248Z,20.69
2023-06-28T02:42:39.289Z,20.62
2023-06-28T02:45:07.932Z,20.66
2023-06-28T02:47:35.973Z,20.61
2023-06-28T02:50:06.955Z,20.60
2023-06-28T02:52:35.532Z,20.56
2023-06-28T02:55:04.532Z,20.58
2023-06-28T02:57:32.031Z,20.56
2023-06-28T03:00:00.096Z,20.52
2023-06-28T03:02:27.598Z,20.56
2023-06-28T03:04:55.256Z,20.51
2023-06-28T03:07:22.996Z,20.47
2023-06-28T03:09:51.018Z,20.51
2023-06-28T03:12:19.137Z,20.48
2023-06-28T03:14:47.389Z,20.48
2023-06-28T03:17:14.923Z,20.42
2023-06-28T03:19:42.433Z,20.48
2023-06-28T03:22:10.294Z,20.44
2023-06-28T03:24:38.439Z,20.49
2023-06-28T03:27:06.445Z,20.50
2023-06-28T03:29:34.309Z,20.44
2023-06-28T03:32:02.252Z,20.48
2023-06-28T03:34:29.784Z,20.39
2023-06-28T03:37:04.569Z,20.47
2023-06-28T03:39:32.805Z,20.52
2023-06-28T03:42:00.644Z,20.55
2023-06-28T03:44:29.375Z,20.49
2023-06-28T03:46:56.831Z,20.45
2023-06-28T03:49:24.772Z,20.42
2023-06-28T03:51:52.325Z,20.52
2023-06-28T03:54:21.711Z,20.49
2023-06-28T03:56:50.396Z,20.54
2023-06-28T03:59:18.076Z,20.56
2023-06-28T04:01:48.030Z,20.53
2023-06-28T04:04:17.613Z,20.58
2023-06-28T04:06:46.419Z,20.54
2023-06-28T04:09:14.216Z,20.54
2023-06-28T04:11:42.344Z,20.60
2023-06-28T04:14:09.805Z,20.61
2023-06-28T04:16:37.281Z,20.54
2023-06-28T04:19:06.537Z,20.61
2023-06-28T04:21:35.022Z,20.58
2023-06-28T04:24:02.716Z,20.61
2023-06-28T04:26:30.544Z,20.65
2023-06-28T04:28:57.965Z,20.82
2023-06-28T04:31:26.525Z,20.67
2023-06-28T04:33:56.759Z,20.85
2023-06-28T04:36:26.734Z,20.80
2023-06-28T04:38:55.908Z,20.88
2023-06-28T04:41:24.658Z,20.86
2023-06-28T04:43:56.963Z,20.97
2023-06-28T04:46:28.093Z,20.91
2023-06-28T04:48:57.534Z,20.94
2023-06-28T04:51:25.502Z,20.91
2023-06-28T04:53:53.250Z,20.97
2023-06-28T04:56:20.703Z,21.04
2023-06-28T04:58:48.483Z,20.85
2023-06-28T05:01:15.928Z,21.00
2023-06-28T05:03:43.863Z,21.10
2023-06-28T05:06:11.689Z,21.15
2023-06-28T05:08:39.155Z,21.12
2023-06-28T05:11:08.214Z,21.24
2023-06-28T05:13:36.075Z,21.16
2023-06-28T05:16:03.842Z,21.08
2023-06-28T05:18:31.403Z,21.08
2023-06-28T05:20:59.138Z,20.97
2023-06-28T05:23:26.822Z,21.09
2023-06-28T05:25:54.285Z,21.21
2023-06-28T05:28:22.077Z,21.25
2023-06-28T05:30:49.552Z,21.18
2023-06-28T05:33:17.244Z,21.19
2023-06-28T05:35:44.950Z,21.23
2023-06-28T05:38:12.392Z,21.15
2023-06-28T05:40:40.072Z,21.14
2023-06-28T05:43:07.970Z,21.21
2023-06-28T05:45:35.395Z,21.25
2023-06-28T05:48:03.934Z,21.30
2023-06-28T05:50:32.191Z,21.23
2023-06-28T05:52:59.632Z,21.22
2023-06-28T05:55:27.083Z,21.50
2023-06-28T05:57:54.805Z,21.55
2023-06-28T06:00:22.287Z,21.80
2023-06-28T06:02:50.122Z,21.91
2023-06-28T06:05:17.727Z,22.08
2023-06-28T06:07:45.292Z,22.19
2023-06-28T06:10:15.137Z,22.24
2023-06-28T06:12:42.644Z,22.39
2023-06-28T06:15:10.524Z,22.42
2023-06-28T06:17:38.346Z,22.64
2023-06-28T06:20:06.666Z,22.67
2023-06-28T06:22:34.138Z,22.68
2023-06-28T06:25:01.901Z,22.69
2023-06-28T06:27:29.389Z,22.61
2023-06-28T06:29:56.795Z,22.47
2023-06-28T06:32:24.639Z,22.34
2023-06-28T06:34:52.208Z,22.22
2023-06-28T06:37:19.722Z,22.18
2023-06-28T06:39:47.540Z,21.98
2023-06-28T06:42:14.978Z,22.06
2023-06-28T06:44:42.856Z,21.90
2023-06-28T06:47:10.676Z,21.79
2023-06-28T06:49:38.093Z,21.83
2023-06-28T06:52:05.866Z,21.82
2023-06-28T06:54:33.623Z,21.93
2023-06-28T06:57:03.086Z,21.83
2023-06-28T06:59:30.610Z,21.71
2023-06-28T07:01:58.613Z,21.50
2023-06-28T07:04:26.160Z,21.62
2023-06-28T07:06:53.625Z,21.65
2023-06-28T07:09:21.405Z,21.69
2023-06-28T07:11:49.321Z,21.52
2023-06-28T07:14:16.825Z,21.45
2023-06-28T07:16:46.553Z,21.52
2023-06-28T07:19:17.297Z,21.68
2023-06-28T07:21:45.064Z,21.72
2023-06-28T07:24:12.488Z,21.64
2023-06-28T07:26:39.988Z,21.65
2023-06-28T07:29:07.705Z,21.66
2023-06-28T07:31:35.147Z,21.57
2023-06-28T07:34:05.921Z,21.67
2023-06-28T07:36:33.882Z,21.85
2023-06-28T07:39:01.320Z,21.75
2023-06-28T07:41:29.027Z,21.64
2023-06-28T07:43:56.749Z,21.48
2023-06-28T07:46:24.178Z,21.57
2023-06-28T07:48:54.202Z,21.72
2023-06-28T07:51:21.944Z,21.62
2023-06-28T07:53:49.689Z,21.56
2023-06-28T07:56:17.657Z,21.60
2023-06-28T07:58:45.398Z,21.44
2023-06-28T08:01:12.995Z,21.54
2023-06-28T08:03:40.831Z,21.62
2023-06-28T08:06:08.330Z,21.85
2023-06-28T08:08:35.789Z,21.77
2023-06-28T08:11:03.596Z,21.90
2023-06-28T08:13:31.132Z,21.90
2023-06-28T08:15:58.600Z,21.89
2023-06-28T08:18:26.445Z,21.98
2023-06-28T08:20:54.372Z,21.99
2023-06-28T08:23:22.766Z,22.25
2023-06-28T08:25:50.557Z,22.29
2023-06-28T08:28:18.059Z,22.18
2023-06-28T08:30:45.619Z,22.21
2023-06-28T08:33:13.674Z,22.17
2023-06-28T08:35:41.674Z,22.30
2023-06-28T08:38:09.664Z,22.35
2023-06-28T08:40:37.411Z,22.29
2023-06-28T08:43:05.250Z,22.37
2023-06-28T08:45:34.656Z,22.41
2023-06-28T08:48:13.061Z,22.51
2023-06-28T08:50:51.142Z,22.46
2023-06-28T08:53:20.786Z,22.56
2023-06-28T08:55:49.180Z,22.60
2023-06-28T08:58:17.088Z,22.59
2023-06-28T09:00:46.673Z,22.67
2023-06-28T09:03:16.320Z,22.65
2023-06-28T09:05:45.810Z,22.68
2023-06-28T09:08:13.871Z,22.53
2023-06-28T09:10:41.938Z,22.46
2023-06-28T09:13:10.463Z,22.56
2023-06-28T09:15:38.213Z,22.70
2023-06-28T09:18:05.665Z,22.67
2023-06-28T09:20:33.906Z,22.66
2023-06-28T09:23:01.666Z,22.67
2023-06-28T09:25:32.225Z,22.64
2023-06-28T09:28:01.070Z,22.69
2023-06-28T09:30:43.453Z,22.75
2023-06-28T09:33:11.221Z,22.82
2023-06-28T09:35:38.860Z,23.01
2023-06-28T09:38:09.614Z,23.02
2023-06-28T09:40:37.491Z,23.11
2023-06-28T09:43:05.106Z,23.07
2023-06-28T09:45:36.387Z,23.08
2023-06-28T09:48:05.174Z,22.93
2023-06-28T09:50:41.948Z,22.94
2023-06-28T09:53:14.244Z,23.23
2023-06-28T09:55:44.051Z,23.06
2023-06-28T09:58:16.622Z,23.35
2023-06-28T10:00:44.812Z,23.51
2023-06-28T10:03:14.605Z,23.73
2023-06-28T10:05:44.856Z,23.76
2023-06-28T10:08:15.226Z,23.68
2023-06-28T10:10:44.454Z,23.66
2023-06-28T10:13:20.716Z,23.73
2023-06-28T10:15:56.461Z,23.82
2023-06-28T10:18:25.473Z,23.78
2023-06-28T10:20:53.530Z,23.64
2023-06-28T10:23:21.680Z,23.58
2023-06-28T10:25:49.474Z,23.63
2023-06-28T10:28:17.256Z,23.71
2023-06-28T10:30:44.890Z,23.76
2023-06-28T10:33:15.529Z,23.87
2023-06-28T10:35:45.170Z,24.06
2023-06-28T10:38:12.805Z,24.24
2023-06-28T10:40:40.577Z,24.36
2023-06-28T10:43:23.236Z,24.56
2023-06-28T10:45:52.949Z,24.77
2023-06-28T10:48:22.331Z,25.01
2023-06-28T10:50:51.066Z,25.19
2023-06-28T10:53:29.731Z,25.36
2023-06-28T10:56:13.083Z,25.49
2023-06-28T10:58:42.432Z,25.52
2023-06-28T11:01:11.856Z,25.66
2023-06-28T11:03:43.118Z,25.70
2023-06-28T11:06:15.368Z,25.40
2023-06-28T11:08:44.997Z,25.39
2023-06-28T11:11:24.805Z,25.57
2023-06-28T11:13:52.392Z,25.59
2023-06-28T11:16:22.602Z,25.63
2023-06-28T11:18:53.739Z,25.77
2023-06-28T11:21:25.841Z,25.69
2023-06-28T11:23:55.558Z,25.63
2023-06-28T11:26:37.786Z,25.76
2023-06-28T11:29:19.709Z,25.92
2023-06-28T11:31:50.056Z,26.17
2023-06-28T11:34:18.466Z,26.35
2023-06-28T11:36:48.429Z,26.34
2023-06-28T11:39:17.413Z,26.36
2023-06-28T11:41:45.105Z,26.34
2023-06-28T11:44:16.086Z,26.19
2023-06-28T11:46:47.229Z,26.35
2023-06-28T11:49:16.651Z,26.40
2023-06-28T11:51:45.319Z,26.68
2023-06-28T11:54:13.442Z,26.69
2023-06-28T11:56:48.106Z,26.81
2023-06-28T11:59:16.427Z,26.97
2023-06-28T12:01:45.069Z,27.04
2023-06-28T12:04:22.787Z,26.90
2023-06-28T12:06:53.593Z,26.93
2023-06-28T12:09:26.150Z,27.00
2023-06-28T12:12:07.142Z,27.02
2023-06-28T12:14:44.191Z,27.06
2023-06-28T12:17:11.805Z,27.02
2023-06-28T12:19:41.253Z,26.91
2023-06-28T12:22:08.755Z,26.91
2023-06-28T12:24:37.741Z,26.98
2023-06-28T12:27:07.274Z,26.77
2023-06-28T12:29:36.632Z,26.74
2023-06-28T12:32:09.354Z,26.46
2023-06-28T12:34:38.882Z,26.29
2023-06-28T12:37:11.181Z,26.42
2023-06-28T12:39:40.548Z,26.33
2023-06-28T12:42:10.018Z,26.26
2023-06-28T12:44:52.022Z,26.31
2023-06-28T12:47:20.364Z,26.34
2023-06-28T12:49:48.587Z,26.51
2023-06-28T12:52:16.147Z,26.67
2023-06-28T12:54:45.192Z,26.56
2023-06-28T12:57:12.887Z,26.80
2023-06-28T12:59:41.116Z,26.61
2023-06-28T13:02:08.818Z,26.57
2023-06-28T13:04:39.459Z,26.55
2023-06-28T13:07:11.006Z,26.37
2023-06-28T13:09:38.877Z,26.31
2023-06-28T13:12:10.092Z,26.29
2023-06-28T13:14:37.804Z,26.19
2023-06-28T13:17:06.951Z,26.00
2023-06-28T13:19:34.873Z,25.80
2023-06-28T13:22:02.580Z,25.96
2023-06-28T13:24:30.291Z,25.98
2023-06-28T13:26:58.012Z,26.20
2023-06-28T13:29:26.433Z,26.24
2023-06-28T13:31:54.171Z,26.27
2023-06-28T13:34:21.668Z,26.22
2023-06-28T13:36:49.173Z,26.29
2023-06-28T13:39:18.590Z,26.25
2023-06-28T13:41:46.022Z,26.25
2023-06-28T13:44:13.524Z,26.12
2023-06-28T13:46:41.415Z,25.92
2023-06-28T13:49:09.051Z,26.01
2023-06-28T13:51:36.592Z,25.79
2023-06-28T13:54:04.341Z,25.30
2023-06-28T13:56:31.878Z,25.10
2023-06-28T13:58:59.362Z,24.84
2023-06-28T14:01:27.109Z,24.84
2023-06-28T14:03:54.935Z,24.92
2023-06-28T14:06:22.754Z,24.91
2023-06-28T14:08:50.190Z,24.65
2023-06-28T14:11:18.272Z,24.22
2023-06-28T14:13:45.846Z,24.43
2023-06-28T14:16:13.311Z,24.44
2023-06-28T14:18:41.352Z,24.16
2023-06-28T14:21:09.083Z,24.22
2023-06-28T14:23:36.741Z,24.36
2023-06-28T14:26:04.458Z,24.01
2023-06-28T14:28:31.983Z,24.09
2023-06-28T14:30:59.662Z,23.89
2023-06-28T14:33:27.995Z,23.93
2023-06-28T14:35:55.516Z,23.95
2023-06-28T14:38:22.993Z,23.80
2023-06-28T14:40:50.756Z,23.65
2023-06-28T14:43:18.932Z,23.71
2023-06-28T14:45:46.614Z,23.67
2023-06-28T14:48:14.366Z,23.68
2023-06-28T14:50:41.883Z,23.88
2023-06-28T14:53:09.876Z,23.99
2023-06-28T14:55:37.842Z,24.05
2023-06-28T14:58:05.309Z,24.28
2023-06-28T15:00:32.780Z,24.27
2023-06-28T15:03:00.566Z,24.37
2023-06-28T15:05:28.120Z,24.41
2023-06-28T15:07:55.675Z,24.42
2023-06-28T15:10:25.649Z,24.43
2023-06-28T15:12:53.227Z,24.37
2023-06-28T15:15:20.789Z,24.28
2023-06-28T15:17:48.500Z,24.07
2023-06-28T15:20:22.857Z,23.99
2023-06-28T15:23:05.383Z,24.09
2023-06-28T15:25:33.426Z,24.12
2023-06-28T15:28:01.247Z,24.34
2023-06-28T15:30:28.789Z,24.32
2023-06-28T15:32:56.288Z,24.36
2023-06-28T15:35:24.053Z,24.23
2023-06-28T15:37:53.230Z,24.18
2023-06-28T15:40:20.916Z,24.23
2023-06-28T15:42:48.615Z,24.17
2023-06-28T15:45:16.151Z,24.27
2023-06-28T15:47:44.358Z,24.28
2023-06-28T15:50:12.143Z,24.44
2023-06-28T15:52:39.570Z,24.36
2023-06-28T15:55:07.608Z,24.43
2023-06-28T15:57:35.811Z,24.40
2023-06-28T16:00:04.139Z,24.38
2023-06-28T16:02:39.582Z,24.43
2023-06-28T16:05:07.550Z,24.53
2023-06-28T16:07:35.070Z,24.62
2023-06-28T16:10:02.776Z,24.66
2023-06-28T16:12:30.616Z,24.59
2023-06-28T16:14:59.673Z,24.69
2023-06-28T16:17:27.287Z,24.55
2023-06-28T16:19:55.043Z,24.58
2023-06-28T16:22:22.596Z,24.48
2023-06-28T16:24:50.004Z,24.63
2023-06-28T16:27:21.738Z,24.65
2023-06-28T16:29:49.441Z,24.69
2023-06-28T16:32:17.008Z,24.53
2023-06-28T16:34:44.735Z,24.56
2023-06-28T16:37:12.300Z,24.44
2023-06-28T16:39:41.597Z,24.45
2023-06-28T16:42:09.461Z,24.40
2023-06-28T16:44:36.912Z,24.30
2023-06-28T16:47:04.945Z,24.23
2023-06-28T16:49:32.701Z,24.18
2023-06-28T16:52:00.246Z,24.18
2023-06-28T16:54:27.708Z,24.03
2023-06-28T16:56:55.453Z,23.96
2023-06-28T16:59:22.912Z,23.99
2023-06-28T17:01:50.663Z,24.03
2023-06-28T17:04:18.493Z,23.92
2023-06-28T17:06:46.032Z,23.60
2023-06-28T17:09:13.514Z,23.85
2023-06-28T17:11:41.264Z,23.99
2023-06-28T17:14:09.270Z,23.89
2023-06-28T17:16:36.855Z,23.93
2023-06-28T17:19:04.971Z,24.03
2023-06-28T17:21:32.417Z,23.99
2023-06-28T17:23:59.870Z,23.97
2023-06-28T17:26:31.146Z,24.00
2023-06-28T17:29:00.039Z,23.98
2023-06-28T17:31:27.965Z,23.93
2023-06-28T17:33:56.350Z,23.89
2023-06-28T17:36:25.292Z,23.81
2023-06-28T17:38:53.036Z,23.87
2023-06-28T17:41:20.575Z,23.69
2023-06-28T17:43:48.019Z,23.75
2023-06-28T17:46:15.739Z,23.75
2023-06-28T17:48:43.399Z,23.76
2023-06-28T17:51:10.844Z,23.70
2023-06-28T17:53:39.284Z,23.75
2023-06-28T17:56:07.482Z,23.80
2023-06-28T17:58:35.266Z,23.77
2023-06-28T18:01:03.039Z,23.69
2023-06-28T18:03:30.784Z,23.71
2023-06-28T18:05:58.320Z,23.66
2023-06-28T18:08:25.779Z,23.49
2023-06-28T18:10:54.228Z,23.59
2023-06-28T18:13:21.658Z,23.49
2023-06-28T18:15:49.105Z,23.48
2023-06-28T18:18:17.251Z,23.53
2023-06-28T18:20:44.908Z,23.42
2023-06-28T18:23:12.547Z,23.37
2023-06-28T18:25:40.356Z,23.28
2023-06-28T18:28:07.800Z,23.24
2023-06-28T18:30:35.249Z,23.21
2023-06-28T18:33:03.194Z,23.17
2023-06-28T18:35:34.500Z,23.13
2023-06-28T18:38:05.654Z,23.01
2023-06-28T18:40:33.370Z,22.99
2023-06-28T18:43:01.141Z,22.86
2023-06-28T18:45:29.048Z,22.86
2023-06-28T18:47:58.193Z,22.82
2023-06-28T18:50:25.659Z,22.72
2023-06-28T18:52:53.240Z,22.65
2023-06-28T18:55:23.962Z,22.64
2023-06-28T18:57:55.749Z,22.57
2023-06-28T19:00:23.443Z,22.47
2023-06-28T19:02:50.824Z,22.45
2023-06-28T19:05:18.621Z,22.38
2023-06-28T19:07:46.889Z,22.29
2023-06-28T19:10:14.941Z,22.20
2023-06-28T19:12:42.397Z,22.10
2023-06-28T19:15:10.578Z,22.09
2023-06-28T19:17:38.033Z,21.93
2023-06-28T19:20:06.133Z,21.91
2023-06-28T19:22:33.941Z,21.88
2023-06-28T19:25:01.476Z,21.73
2023-06-28T19:27:28.926Z,21.68
2023-06-28T19:29:56.673Z,21.65
2023-06-28T19:32:24.175Z,21.61
2023-06-28T19:34:52.195Z,21.55
2023-06-28T19:37:19.936Z,21.59
2023-06-28T19:39:47.625Z,21.57
2023-06-28T19:42:15.105Z,21.47
2023-06-28T19:44:42.921Z,21.43
2023-06-28T19:47:10.626Z,21.31
2023-06-28T19:49:38.191Z,21.36
2023-06-28T19:52:06.234Z,21.27
2023-06-28T19:54:34.117Z,21.34
2023-06-28T19:57:01.954Z,21.33
2023-06-28T19:59:29.869Z,21.34
2023-06-28T20:01:57.337Z,21.28
2023-06-28T20:04:25.250Z,21.24
2023-06-28T20:06:52.808Z,21.20
2023-06-28T20:09:20.575Z,21.18
2023-06-28T20:11:48.333Z,21.08
2023-06-28T20:14:16.029Z,21.07
2023-06-28T20:16:43.512Z,21.04
2023-06-28T20:19:11.246Z,21.08
2023-06-28T20:21:38.808Z,20.96
2023-06-28T20:24:06.444Z,20.94
2023-06-28T20:26:36.083Z,20.97
2023-06-28T20:29:03.715Z,20.95
2023-06-28T20:31:33.935Z,20.94
2023-06-28T20:34:01.710Z,20.92
2023-06-28T20:36:29.415Z,20.86
2023-06-28T20:38:57.079Z,20.85
2023-06-28T20:41:27.651Z,20.87
2023-06-28T20:43:55.917Z,20.80
2023-06-28T20:46:23.886Z,20.84
2023-06-28T20:48:51.624Z,20.86
2023-06-28T20:51:19.175Z,20.79
2023-06-28T20:53:47.645Z,20.86
2023-06-28T20:56:15.451Z,20.81
2023-06-28T20:58:43.638Z,20.81
2023-06-28T21:01:11.131Z,20.83
2023-06-28T21:03:39.175Z,20.77
2023-06-28T21:06:06.670Z,20.71
2023-06-28T21:08:34.126Z,20.79
2023-06-28T21:11:01.907Z,20.79
2023-06-28T21:13:29.412Z,20.57
2023-06-28T21:15:56.853Z,20.65
2023-06-28T21:18:24.570Z,20.71
2023-06-28T21:20:52.917Z,20.71
2023-06-28T21:23:20.449Z,20.72
2023-06-28T21:25:48.698Z,20.71
2023-06-28T21:28:16.191Z,20.69
2023-06-28T21:30:43.736Z,20.58
2023-06-28T21:33:11.451Z,20.60
2023-06-28T21:35:38.916Z,20.56
2023-06-28T21:38:06.405Z,20.54
2023-06-28T21:40:34.162Z,20.54
2023-06-28T21:43:01.575Z,20.53
2023-06-28T21:45:29.023Z,20.52
2023-06-28T21:47:56.961Z,20.43
2023-06-28T21:50:24.445Z,20.41
2023-06-28T21:52:51.917Z,20.38
2023-06-28T21:55:19.960Z,20.36
2023-06-28T21:57:47.391Z,20.41
2023-06-28T22:00:26.326Z,20.42
2023-06-28T22:02:55.410Z,20.37
2023-06-28T22:05:23.441Z,20.30
2023-06-28T22:07:52.640Z,20.25
2023-06-28T22:10:20.820Z,20.11
2023-06-28T22:12:48.527Z,20.09
2023-06-28T22:15:17.223Z,20.10
2023-06-28T22:17:45.209Z,20.03
2023-06-28T22:20:13.069Z,19.99
2023-06-28T22:22:40.798Z,19.96
2023-06-28T22:25:09.089Z,19.96
2023-06-28T22:27:36.616Z,19.83
2023-06-28T22:30:05.066Z,19.84
2023-06-28T22:32:32.873Z,19.76
2023-06-28T22:35:00.395Z,19.77
2023-06-28T22:37:27.971Z,19.65
2023-06-28T22:39:55.701Z,19.64
2023-06-28T22:42:23.095Z,19.57
2023-06-28T22:44:50.572Z,19.57
2023-06-28T22:47:18.308Z,19.54
2023-06-28T22:49:45.758Z,19.55
2023-06-28T22:52:14.207Z,19.53
2023-06-28T22:54:41.940Z,19.51
2023-06-28T22:57:09.497Z,19.51
2023-06-28T22:59:36.937Z,19.48
2023-06-28T23:02:05.134Z,19.41
2023-06-28T23:04:32.598Z,19.35
2023-06-28T23:07:00.174Z,19.46
2023-06-28T23:09:28.575Z,19.51
2023-06-28T23:11:57.708Z,19.45
2023-06-28T23:14:28.415Z,19.40
2023-06-28T23:16:58.341Z,19.31
2023-06-28T23:19:25.776Z,19.32
2023-06-28T23:21:53.932Z,19.30
2023-06-28T23:24:21.637Z,19.24
2023-06-28T23:26:49.856Z,19.19
2023-06-28T23:29:18.448Z,19.15
2023-06-28T23:31:46.394Z,19.11
2023-06-28T23:34:18.212Z,19.04
2023-06-28T23:36:49.996Z,19.03
2023-06-28T23:39:18.260Z,19.02
2023-06-28T23:41:49.342Z,18.96
2023-06-28T23:44:16.933Z,18.97
2023-06-28T23:46:47.225Z,18.90
2023-06-28T23:49:14.994Z,18.83
2023-06-28T23:51:42.800Z,18.77
2023-06-28T23:54:11.053Z,18.79
2023-06-28T23:56:39.576Z,18.75
2023-06-28T23:59:07.515Z,18.74
